Gladwin, MI

7:54 PM EST on December 26, 2014 (GMT -0500)
Roscommon County | Change Station
CLOSE
Current Station
Airport
Location: Houghton Lake,
Elevation: 1152 ft
Nearby Weather Stations

Elev 1152 ft 44.36 °N, 84.67 °W | Updated 1 hour ago

Overcast
Overcast
36 °F
Feels Like 36 °F
N
0
Wind Variable Wind from North

Today
High -- | Low -- °F
--% Chance of Precip.
Yesterday
High -- | Low -- °F
Precip. -- in
8:11 AM 5:05 PM
Waxing Crescent, 31% visible
Pressure 30.08 in
Visibility 10.0 miles
Clouds Overcast 1900 ft
Dew Point 33 °F
Humidity 89%
Rainfall 0.00 in
Snow Depth Not available.
UV 0 out of 12
Pollen .10 out of 12
Air Quality Not available.
Flu Activity Not available.
METAR KHTL 262353Z AUTO 00000KT 10SM OVC019 02/01 A3004 RMK AO2 SLP185 T00220006 10028 20017 53010

More Conditions Fewer Conditions

Pressure 30.08 in
Visibility 10.0 miles
Clouds Overcast 1900 ft
Dew Point 33 °F
Humidity 89%
Rainfall 0.00 in
Snow Depth Not available.
UV 0 out of 12
Pollen .10 out of 12
Air Quality Not available.
Flu Activity Not available.
METAR KHTL 262353Z AUTO 00000KT 10SM OVC019 02/01 A3004 RMK AO2 SLP185 T00220006 10028 20017 53010

More Conditions Fewer Conditions

Nowcast | as of 7:00 PM EST on December 26, 2014

At 8 PM...mostly cloudy. Temperature 37. South winds 5 mph. At 10 PM...cloudy. Temperature 37. Light winds. At 12 am...cloudy. Temperature 36. Light winds. At 2 am...cloudy. Temperature 36. Light winds.

×

10-Day Weather Forecast

Almanac

Astronomy

Dec. 26, 2014 Rise Set
Actual Time
Civil Twilight
Nautical Twilight
Astronomical Twilight
Moon
Length of Visible Light
Length of Day
Tomorrow will be .
, % of the Moon is Illuminated

Today's Extremes

State Highs State Lows

Community

WunderPhotos

Upload Photos

1,780,799 photos uploaded!

WunderBlogs® & News

Nearby

Air Quality

  Air Quality AQ Index Pollutant
Not available.

Snow Depth

Station Depth Elevation

Earthquake Activity

City Distance Mag. Time & Date
Minimum magnitude displayed is 2.5.

Coastal Water Temperatures

Place Temperature

Nearby Weather Stations